sensor_id;sensor_type;location;lat;lon;timestamp;temperature;humidity
69359;HTU21D;56520;49.066;8.660;2023-04-24T00:01:14;11.05;81.39
69359;HTU21D;56520;49.066;8.660;2023-04-24T00:03:42;11.01;81.88
69359;HTU21D;56520;49.066;8.660;2023-04-24T00:06:08;11.00;81.84
69359;HTU21D;56520;49.066;8.660;2023-04-24T00:08:34;11.00;81.91
69359;HTU21D;56520;49.066;8.660;2023-04-24T00:11:00;10.96;82.10
69359;HTU21D;56520;49.066;8.660;2023-04-24T00:13:25;10.98;81.83
69359;HTU21D;56520;49.066;8.660;2023-04-24T00:15:51;11.00;81.73
69359;HTU21D;56520;49.066;8.660;2023-04-24T00:18:16;11.08;81.33
69359;HTU21D;56520;49.066;8.660;2023-04-24T00:20:42;11.17;80.57
69359;HTU21D;56520;49.066;8.660;2023-04-24T00:23:08;11.25;80.28
69359;HTU21D;56520;49.066;8.660;2023-04-24T00:25:34;11.31;80.45
69359;HTU21D;56520;49.066;8.660;2023-04-24T00:28:00;11.34;79.46
69359;HTU21D;56520;49.066;8.660;2023-04-24T00:30:25;11.45;79.58
69359;HTU21D;56520;49.066;8.660;2023-04-24T00:32:50;11.49;79.49
69359;HTU21D;56520;49.066;8.660;2023-04-24T00:35:16;11.51;79.69
69359;HTU21D;56520;49.066;8.660;2023-04-24T00:37:41;11.52;79.40
69359;HTU21D;56520;49.066;8.660;2023-04-24T00:40:07;11.55;79.64
69359;HTU21D;56520;49.066;8.660;2023-04-24T00:42:33;11.63;78.90
69359;HTU21D;56520;49.066;8.660;2023-04-24T00:44:59;11.67;78.72
69359;HTU21D;56520;49.066;8.660;2023-04-24T00:47:26;11.69;78.82
69359;HTU21D;56520;49.066;8.660;2023-04-24T00:49:52;11.68;78.95
69359;HTU21D;56520;49.066;8.660;2023-04-24T00:52:17;11.66;79.24
69359;HTU21D;56520;49.066;8.660;2023-04-24T00:54:45;11.59;79.17
69359;HTU21D;56520;49.066;8.660;2023-04-24T00:57:13;11.58;79.20
69359;HTU21D;56520;49.066;8.660;2023-04-24T00:59:41;11.69;78.27
69359;HTU21D;56520;49.066;8.660;2023-04-24T01:02:09;11.70;77.50
69359;HTU21D;56520;49.066;8.660;2023-04-24T01:04:35;11.75;77.75
69359;HTU21D;56520;49.066;8.660;2023-04-24T01:07:00;11.76;77.62
69359;HTU21D;56520;49.066;8.660;2023-04-24T01:09:26;11.82;76.92
69359;HTU21D;56520;49.066;8.660;2023-04-24T01:11:52;11.79;77.31
69359;HTU21D;56520;49.066;8.660;2023-04-24T01:14:18;11.81;76.88
69359;HTU21D;56520;49.066;8.660;2023-04-24T01:16:43;11.77;76.74
69359;HTU21D;56520;49.066;8.660;2023-04-24T01:19:10;11.74;77.08
69359;HTU21D;56520;49.066;8.660;2023-04-24T01:21:38;11.75;77.27
69359;HTU21D;56520;49.066;8.660;2023-04-24T01:24:05;11.72;77.64
69359;HTU21D;56520;49.066;8.660;2023-04-24T01:26:31;11.60;78.01
69359;HTU21D;56520;49.066;8.660;2023-04-24T01:28:57;11.53;78.26
69359;HTU21D;56520;49.066;8.660;2023-04-24T01:31:22;11.47;78.65
69359;HTU21D;56520;49.066;8.660;2023-04-24T01:33:49;11.44;78.86
69359;HTU21D;56520;49.066;8.660;2023-04-24T01:36:16;11.46;78.87
69359;HTU21D;56520;49.066;8.660;2023-04-24T01:38:41;11.51;78.68
69359;HTU21D;56520;49.066;8.660;2023-04-24T01:41:07;11.54;78.63
69359;HTU21D;56520;49.066;8.660;2023-04-24T01:43:32;11.56;78.53
69359;HTU21D;56520;49.066;8.660;2023-04-24T01:45:58;11.56;78.56
69359;HTU21D;56520;49.066;8.660;2023-04-24T01:48:23;11.56;78.71
69359;HTU21D;56520;49.066;8.660;2023-04-24T01:50:49;11.59;78.49
69359;HTU21D;56520;49.066;8.660;2023-04-24T01:53:14;11.67;78.08
69359;HTU21D;56520;49.066;8.660;2023-04-24T01:55:42;11.71;77.90
69359;HTU21D;56520;49.066;8.660;2023-04-24T01:58:08;11.79;77.18
69359;HTU21D;56520;49.066;8.660;2023-04-24T02:00:33;11.85;77.49
69359;HTU21D;56520;49.066;8.660;2023-04-24T02:02:59;11.84;78.06
69359;HTU21D;56520;49.066;8.660;2023-04-24T02:05:24;11.86;77.95
69359;HTU21D;56520;49.066;8.660;2023-04-24T02:07:49;11.84;78.38
69359;HTU21D;56520;49.066;8.660;2023-04-24T02:10:15;11.81;78.19
69359;HTU21D;56520;49.066;8.660;2023-04-24T02:12:40;11.82;77.83
69359;HTU21D;56520;49.066;8.660;2023-04-24T02:15:09;11.84;77.14
69359;HTU21D;56520;49.066;8.660;2023-04-24T02:17:34;11.83;77.50
69359;HTU21D;56520;49.066;8.660;2023-04-24T02:20:00;11.68;78.39
69359;HTU21D;56520;49.066;8.660;2023-04-24T02:22:25;11.60;78.29
69359;HTU21D;56520;49.066;8.660;2023-04-24T02:24:51;11.58;78.27
69359;HTU21D;56520;49.066;8.660;2023-04-24T02:27:16;11.56;78.36
69359;HTU21D;56520;49.066;8.660;2023-04-24T02:29:41;11.45;78.92
69359;HTU21D;56520;49.066;8.660;2023-04-24T02:32:07;11.49;78.37
69359;HTU21D;56520;49.066;8.660;2023-04-24T02:34:36;11.46;78.79
69359;HTU21D;56520;49.066;8.660;2023-04-24T02:37:01;11.51;78.60
69359;HTU21D;56520;49.066;8.660;2023-04-24T02:39:27;11.61;78.57
69359;HTU21D;56520;49.066;8.660;2023-04-24T02:41:52;11.67;78.52
69359;HTU21D;56520;49.066;8.660;2023-04-24T02:44:18;11.70;78.56
69359;HTU21D;56520;49.066;8.660;2023-04-24T02:46:43;11.78;77.99
69359;HTU21D;56520;49.066;8.660;2023-04-24T02:49:08;11.84;77.77
69359;HTU21D;56520;49.066;8.660;2023-04-24T02:51:34;11.87;77.82
69359;HTU21D;56520;49.066;8.660;2023-04-24T02:53:59;11.78;78.30
69359;HTU21D;56520;49.066;8.660;2023-04-24T02:56:25;11.76;78.56
69359;HTU21D;56520;49.066;8.660;2023-04-24T02:58:50;11.70;78.83
69359;HTU21D;56520;49.066;8.660;2023-04-24T03:01:18;11.64;79.06
69359;HTU21D;56520;49.066;8.660;2023-04-24T03:03:44;11.67;79.22
69359;HTU21D;56520;49.066;8.660;2023-04-24T03:06:09;11.71;78.85
69359;HTU21D;56520;49.066;8.660;2023-04-24T03:08:35;11.76;78.50
69359;HTU21D;56520;49.066;8.660;2023-04-24T03:11:00;11.79;78.63
69359;HTU21D;56520;49.066;8.660;2023-04-24T03:13:26;11.83;79.04
69359;HTU21D;56520;49.066;8.660;2023-04-24T03:15:51;11.87;80.10
69359;HTU21D;56520;49.066;8.660;2023-04-24T03:18:18;12.27;77.82
69359;HTU21D;56520;49.066;8.660;2023-04-24T03:20:45;12.18;79.87
69359;HTU21D;56520;49.066;8.660;2023-04-24T03:23:11;11.97;81.59
69359;HTU21D;56520;49.066;8.660;2023-04-24T03:25:36;11.75;83.42
69359;HTU21D;56520;49.066;8.660;2023-04-24T03:28:02;11.64;82.43
69359;HTU21D;56520;49.066;8.660;2023-04-24T03:30:27;11.42;83.46
69359;HTU21D;56520;49.066;8.660;2023-04-24T03:32:53;11.34;83.85
69359;HTU21D;56520;49.066;8.660;2023-04-24T03:35:18;11.14;85.40
69359;HTU21D;56520;49.066;8.660;2023-04-24T03:37:44;11.13;85.25
69359;HTU21D;56520;49.066;8.660;2023-04-24T03:40:09;11.15;85.96
69359;HTU21D;56520;49.066;8.660;2023-04-24T03:42:35;11.18;85.58
69359;HTU21D;56520;49.066;8.660;2023-04-24T03:45:00;10.97;86.32
69359;HTU21D;56520;49.066;8.660;2023-04-24T03:47:25;10.71;83.02
69359;HTU21D;56520;49.066;8.660;2023-04-24T03:49:51;10.45;82.42
69359;HTU21D;56520;49.066;8.660;2023-04-24T03:52:17;10.20;83.10
69359;HTU21D;56520;49.066;8.660;2023-04-24T03:54:42;9.99;84.21
69359;HTU21D;56520;49.066;8.660;2023-04-24T03:57:08;9.75;85.16
69359;HTU21D;56520;49.066;8.660;2023-04-24T03:59:33;9.57;85.82
69359;HTU21D;56520;49.066;8.660;2023-04-24T04:01:58;9.46;86.46
69359;HTU21D;56520;49.066;8.660;2023-04-24T04:04:24;9.45;88.02
69359;HTU21D;56520;49.066;8.660;2023-04-24T04:06:49;9.41;89.20
69359;HTU21D;56520;49.066;8.660;2023-04-24T04:09:14;9.42;90.10
69359;HTU21D;56520;49.066;8.660;2023-04-24T04:11:40;9.42;90.26
69359;HTU21D;56520;49.066;8.660;2023-04-24T04:14:05;9.41;90.43
69359;HTU21D;56520;49.066;8.660;2023-04-24T04:16:31;9.39;91.49
69359;HTU21D;56520;49.066;8.660;2023-04-24T04:18:56;9.41;92.46
69359;HTU21D;56520;49.066;8.660;2023-04-24T04:21:22;9.46;92.85
69359;HTU21D;56520;49.066;8.660;2023-04-24T04:23:47;9.56;93.31
69359;HTU21D;56520;49.066;8.660;2023-04-24T04:26:22;9.50;93.35
69359;HTU21D;56520;49.066;8.660;2023-04-24T04:28:51;9.57;93.40
69359;HTU21D;56520;49.066;8.660;2023-04-24T04:31:16;9.55;93.17
69359;HTU21D;56520;49.066;8.660;2023-04-24T04:33:42;9.47;93.26
69359;HTU21D;56520;49.066;8.660;2023-04-24T04:36:07;9.51;93.08
69359;HTU21D;56520;49.066;8.660;2023-04-24T04:38:33;9.46;92.47
69359;HTU21D;56520;49.066;8.660;2023-04-24T04:41:00;9.44;91.85
69359;HTU21D;56520;49.066;8.660;2023-04-24T04:43:25;9.34;91.85
69359;HTU21D;56520;49.066;8.660;2023-04-24T04:45:52;9.29;91.90
69359;HTU21D;56520;49.066;8.660;2023-04-24T04:48:18;9.26;91.33
69359;HTU21D;56520;49.066;8.660;2023-04-24T04:50:44;9.24;90.66
69359;HTU21D;56520;49.066;8.660;2023-04-24T04:53:09;9.17;90.52
69359;HTU21D;56520;49.066;8.660;2023-04-24T04:55:36;9.10;90.62
69359;HTU21D;56520;49.066;8.660;2023-04-24T04:58:01;9.07;90.57
69359;HTU21D;56520;49.066;8.660;2023-04-24T05:00:27;9.05;90.75
69359;HTU21D;56520;49.066;8.660;2023-04-24T05:02:54;9.14;90.19
69359;HTU21D;56520;49.066;8.660;2023-04-24T05:05:19;9.24;89.04
69359;HTU21D;56520;49.066;8.660;2023-04-24T05:07:45;9.30;88.69
69359;HTU21D;56520;49.066;8.660;2023-04-24T05:10:13;9.36;87.69
69359;HTU21D;56520;49.066;8.660;2023-04-24T05:12:38;9.38;86.83
69359;HTU21D;56520;49.066;8.660;2023-04-24T05:15:04;9.32;87.35
69359;HTU21D;56520;49.066;8.660;2023-04-24T05:17:29;9.27;88.17
69359;HTU21D;56520;49.066;8.660;2023-04-24T05:19:55;9.31;87.83
69359;HTU21D;56520;49.066;8.660;2023-04-24T05:22:20;9.29;87.70
69359;HTU21D;56520;49.066;8.660;2023-04-24T05:24:46;9.40;86.87
69359;HTU21D;56520;49.066;8.660;2023-04-24T05:27:12;9.50;86.62
69359;HTU21D;56520;49.066;8.660;2023-04-24T05:29:38;9.54;86.64
69359;HTU21D;56520;49.066;8.660;2023-04-24T05:32:03;9.67;86.03
69359;HTU21D;56520;49.066;8.660;2023-04-24T05:34:28;9.74;86.26
69359;HTU21D;56520;49.066;8.660;2023-04-24T05:36:54;9.81;86.39
69359;HTU21D;56520;49.066;8.660;2023-04-24T05:39:20;9.89;86.40
69359;HTU21D;56520;49.066;8.660;2023-04-24T05:41:45;10.05;85.51
69359;HTU21D;56520;49.066;8.660;2023-04-24T05:44:11;10.23;84.90
69359;HTU21D;56520;49.066;8.660;2023-04-24T05:46:36;10.43;83.43
69359;HTU21D;56520;49.066;8.660;2023-04-24T05:49:02;10.64;83.02
69359;HTU21D;56520;49.066;8.660;2023-04-24T05:51:28;10.81;82.51
69359;HTU21D;56520;49.066;8.660;2023-04-24T05:53:53;11.00;81.33
69359;HTU21D;56520;49.066;8.660;2023-04-24T05:56:19;11.12;82.09
69359;HTU21D;56520;49.066;8.660;2023-04-24T05:58:45;11.25;80.75
69359;HTU21D;56520;49.066;8.660;2023-04-24T06:01:11;11.34;79.34
69359;HTU21D;56520;49.066;8.660;2023-04-24T06:03:41;11.34;80.27
69359;HTU21D;56520;49.066;8.660;2023-04-24T06:06:07;11.31;79.97
69359;HTU21D;56520;49.066;8.660;2023-04-24T06:08:32;11.27;81.07
69359;HTU21D;56520;49.066;8.660;2023-04-24T06:10:58;11.32;79.74
69359;HTU21D;56520;49.066;8.660;2023-04-24T06:13:24;11.30;80.89
69359;HTU21D;56520;49.066;8.660;2023-04-24T06:15:49;11.37;80.52
69359;HTU21D;56520;49.066;8.660;2023-04-24T06:18:15;11.44;78.50
69359;HTU21D;56520;49.066;8.660;2023-04-24T06:20:40;11.42;79.78
69359;HTU21D;56520;49.066;8.660;2023-04-24T06:23:06;11.39;78.05
69359;HTU21D;56520;49.066;8.660;2023-04-24T06:25:31;11.36;76.98
69359;HTU21D;56520;49.066;8.660;2023-04-24T06:27:57;11.36;76.88
69359;HTU21D;56520;49.066;8.660;2023-04-24T06:30:23;11.29;77.33
69359;HTU21D;56520;49.066;8.660;2023-04-24T06:32:48;11.42;74.91
69359;HTU21D;56520;49.066;8.660;2023-04-24T06:35:13;11.51;73.90
69359;HTU21D;56520;49.066;8.660;2023-04-24T06:37:40;11.46;73.89
69359;HTU21D;56520;49.066;8.660;2023-04-24T06:40:06;11.55;73.07
69359;HTU21D;56520;49.066;8.660;2023-04-24T06:42:32;11.49;73.37
69359;HTU21D;56520;49.066;8.660;2023-04-24T06:45:06;11.45;73.68
69359;HTU21D;56520;49.066;8.660;2023-04-24T06:47:34;11.38;74.24
69359;HTU21D;56520;49.066;8.660;2023-04-24T06:50:00;11.42;73.34
69359;HTU21D;56520;49.066;8.660;2023-04-24T06:52:28;11.42;72.93
69359;HTU21D;56520;49.066;8.660;2023-04-24T06:55:00;11.48;72.17
69359;HTU21D;56520;49.066;8.660;2023-04-24T06:57:26;11.54;71.41
69359;HTU21D;56520;49.066;8.660;2023-04-24T06:59:51;11.43;73.81
69359;HTU21D;56520;49.066;8.660;2023-04-24T07:02:16;11.45;74.82
69359;HTU21D;56520;49.066;8.660;2023-04-24T07:04:42;11.59;72.59
69359;HTU21D;56520;49.066;8.660;2023-04-24T07:07:08;11.68;72.41
69359;HTU21D;56520;49.066;8.660;2023-04-24T07:09:34;11.72;72.83
69359;HTU21D;56520;49.066;8.660;2023-04-24T07:12:03;11.73;70.23
69359;HTU21D;56520;49.066;8.660;2023-04-24T07:14:29;11.82;70.05
69359;HTU21D;56520;49.066;8.660;2023-04-24T07:16:54;11.83;70.42
69359;HTU21D;56520;49.066;8.660;2023-04-24T07:19:19;11.83;68.49
69359;HTU21D;56520;49.066;8.660;2023-04-24T07:21:45;11.82;68.04
69359;HTU21D;56520;49.066;8.660;2023-04-24T07:24:11;11.84;67.92
69359;HTU21D;56520;49.066;8.660;2023-04-24T07:26:38;12.04;66.65
69359;HTU21D;56520;49.066;8.660;2023-04-24T07:29:04;12.18;64.36
69359;HTU21D;56520;49.066;8.660;2023-04-24T07:31:30;12.34;64.58
69359;HTU21D;56520;49.066;8.660;2023-04-24T07:33:55;12.49;63.73
69359;HTU21D;56520;49.066;8.660;2023-04-24T07:36:23;12.65;65.41
69359;HTU21D;56520;49.066;8.660;2023-04-24T07:38:49;12.62;64.89
69359;HTU21D;56520;49.066;8.660;2023-04-24T07:41:15;12.51;64.91
69359;HTU21D;56520;49.066;8.660;2023-04-24T07:43:41;12.35;65.59
69359;HTU21D;56520;49.066;8.660;2023-04-24T07:46:07;12.31;66.63
69359;HTU21D;56520;49.066;8.660;2023-04-24T07:48:36;12.47;65.23
69359;HTU21D;56520;49.066;8.660;2023-04-24T07:51:01;12.50;66.13
69359;HTU21D;56520;49.066;8.660;2023-04-24T07:53:27;12.69;65.11
69359;HTU21D;56520;49.066;8.660;2023-04-24T07:55:54;12.73;65.43
69359;HTU21D;56520;49.066;8.660;2023-04-24T07:58:20;12.99;63.94
69359;HTU21D;56520;49.066;8.660;2023-04-24T08:00:45;13.04;63.56
69359;HTU21D;56520;49.066;8.660;2023-04-24T08:03:10;12.88;63.60
69359;HTU21D;56520;49.066;8.660;2023-04-24T08:05:37;12.53;64.63
69359;HTU21D;56520;49.066;8.660;2023-04-24T08:08:03;12.31;65.08
69359;HTU21D;56520;49.066;8.660;2023-04-24T08:10:28;12.15;65.98
69359;HTU21D;56520;49.066;8.660;2023-04-24T08:12:54;12.13;64.95
69359;HTU21D;56520;49.066;8.660;2023-04-24T08:15:20;12.04;65.06
69359;HTU21D;56520;49.066;8.660;2023-04-24T08:17:46;11.97;65.90
69359;HTU21D;56520;49.066;8.660;2023-04-24T08:20:12;11.93;65.21
69359;HTU21D;56520;49.066;8.660;2023-04-24T08:22:41;11.97;63.92
69359;HTU21D;56520;49.066;8.660;2023-04-24T08:25:08;11.84;64.27
69359;HTU21D;56520;49.066;8.660;2023-04-24T08:27:33;11.68;64.55
69359;HTU21D;56520;49.066;8.660;2023-04-24T08:29:59;11.53;66.35
69359;HTU21D;56520;49.066;8.660;2023-04-24T08:32:25;11.43;66.78
69359;HTU21D;56520;49.066;8.660;2023-04-24T08:34:53;11.42;66.79
69359;HTU21D;56520;49.066;8.660;2023-04-24T08:37:18;11.32;67.65
69359;HTU21D;56520;49.066;8.660;2023-04-24T08:39:44;11.47;68.18
69359;HTU21D;56520;49.066;8.660;2023-04-24T08:42:10;11.72;67.85
69359;HTU21D;56520;49.066;8.660;2023-04-24T08:44:36;11.96;67.87
69359;HTU21D;56520;49.066;8.660;2023-04-24T08:47:02;12.17;66.73
69359;HTU21D;56520;49.066;8.660;2023-04-24T08:49:28;12.30;66.80
69359;HTU21D;56520;49.066;8.660;2023-04-24T08:51:54;12.34;65.29
69359;HTU21D;56520;49.066;8.660;2023-04-24T08:54:20;12.25;63.80
69359;HTU21D;56520;49.066;8.660;2023-04-24T08:56:47;12.07;64.38
69359;HTU21D;56520;49.066;8.660;2023-04-24T08:59:14;12.07;63.76
69359;HTU21D;56520;49.066;8.660;2023-04-24T09:01:41;12.10;66.11
69359;HTU21D;56520;49.066;8.660;2023-04-24T09:04:08;12.35;65.86
69359;HTU21D;56520;49.066;8.660;2023-04-24T09:06:35;12.85;63.50
69359;HTU21D;56520;49.066;8.660;2023-04-24T09:09:01;13.48;62.63
69359;HTU21D;56520;49.066;8.660;2023-04-24T09:11:27;14.36;58.57
69359;HTU21D;56520;49.066;8.660;2023-04-24T09:13:56;15.06;57.67
69359;HTU21D;56520;49.066;8.660;2023-04-24T09:16:21;15.30;56.49
69359;HTU21D;56520;49.066;8.660;2023-04-24T09:18:49;15.43;56.40
69359;HTU21D;56520;49.066;8.660;2023-04-24T09:21:15;15.34;54.16
69359;HTU21D;56520;49.066;8.660;2023-04-24T09:23:41;15.14;55.00
69359;HTU21D;56520;49.066;8.660;2023-04-24T09:26:09;14.92;54.45
69359;HTU21D;56520;49.066;8.660;2023-04-24T09:28:39;14.70;56.48
69359;HTU21D;56520;49.066;8.660;2023-04-24T09:31:22;14.26;56.77
69359;HTU21D;56520;49.066;8.660;2023-04-24T09:36:27;13.22;61.08
69359;HTU21D;56520;49.066;8.660;2023-04-24T09:38:57;12.89;61.63
69359;HTU21D;56520;49.066;8.660;2023-04-24T09:41:22;12.72;63.23
69359;HTU21D;56520;49.066;8.660;2023-04-24T09:43:48;12.60;63.92
69359;HTU21D;56520;49.066;8.660;2023-04-24T09:46:13;12.49;63.33
69359;HTU21D;56520;49.066;8.660;2023-04-24T09:48:39;12.46;61.76
69359;HTU21D;56520;49.066;8.660;2023-04-24T09:51:06;12.30;62.53
69359;HTU21D;56520;49.066;8.660;2023-04-24T09:53:35;12.25;63.27
69359;HTU21D;56520;49.066;8.660;2023-04-24T09:56:08;12.29;62.82
69359;HTU21D;56520;49.066;8.660;2023-04-24T09:58:35;12.27;62.18
69359;HTU21D;56520;49.066;8.660;2023-04-24T10:01:01;12.25;61.25
69359;HTU21D;56520;49.066;8.660;2023-04-24T10:03:30;12.29;60.62
69359;HTU21D;56520;49.066;8.660;2023-04-24T10:06:00;12.40;60.72
69359;HTU21D;56520;49.066;8.660;2023-04-24T10:08:26;12.55;60.43
69359;HTU21D;56520;49.066;8.660;2023-04-24T10:10:58;12.86;62.56
69359;HTU21D;56520;49.066;8.660;2023-04-24T10:13:24;13.55;58.67
69359;HTU21D;56520;49.066;8.660;2023-04-24T10:15:50;13.91;56.21
69359;HTU21D;56520;49.066;8.660;2023-04-24T10:18:16;14.55;55.81
69359;HTU21D;56520;49.066;8.660;2023-04-24T10:20:42;15.08;53.83
69359;HTU21D;56520;49.066;8.660;2023-04-24T10:23:10;15.38;51.37
69359;HTU21D;56520;49.066;8.660;2023-04-24T10:25:36;15.31;53.60
69359;HTU21D;56520;49.066;8.660;2023-04-24T10:28:02;15.25;52.46
69359;HTU21D;56520;49.066;8.660;2023-04-24T10:30:33;14.99;52.86
69359;HTU21D;56520;49.066;8.660;2023-04-24T10:33:06;14.69;54.52
69359;HTU21D;56520;49.066;8.660;2023-04-24T10:35:35;14.42;55.24
69359;HTU21D;56520;49.066;8.660;2023-04-24T10:38:08;14.12;56.87
69359;HTU21D;56520;49.066;8.660;2023-04-24T10:40:35;13.86;56.73
69359;HTU21D;56520;49.066;8.660;2023-04-24T10:43:05;13.56;58.87
69359;HTU21D;56520;49.066;8.660;2023-04-24T10:45:36;13.35;59.00
69359;HTU21D;56520;49.066;8.660;2023-04-24T10:48:08;13.07;59.71
69359;HTU21D;56520;49.066;8.660;2023-04-24T10:50:47;12.82;60.86
69359;HTU21D;56520;49.066;8.660;2023-04-24T10:53:17;12.72;58.67
69359;HTU21D;56520;49.066;8.660;2023-04-24T10:55:50;12.53;60.28
69359;HTU21D;56520;49.066;8.660;2023-04-24T10:58:23;12.52;60.40
69359;HTU21D;56520;49.066;8.660;2023-04-24T11:00:57;12.71;60.38
69359;HTU21D;56520;49.066;8.660;2023-04-24T11:03:31;12.93;60.42
69359;HTU21D;56520;49.066;8.660;2023-04-24T11:08:24;13.64;60.01
69359;HTU21D;56520;49.066;8.660;2023-04-24T11:11:02;14.33;57.56
69359;HTU21D;56520;49.066;8.660;2023-04-24T11:16:28;14.79;55.42
69359;HTU21D;56520;49.066;8.660;2023-04-24T11:21:41;14.20;58.30
69359;HTU21D;56520;49.066;8.660;2023-04-24T11:26:55;14.09;58.76
69359;HTU21D;56520;49.066;8.660;2023-04-24T11:29:22;13.83;62.05
69359;HTU21D;56520;49.066;8.660;2023-04-24T11:31:47;13.66;63.44
69359;HTU21D;56520;49.066;8.660;2023-04-24T11:34:15;13.49;63.66
69359;HTU21D;56520;49.066;8.660;2023-04-24T11:36:45;13.49;64.01
69359;HTU21D;56520;49.066;8.660;2023-04-24T11:39:11;13.54;62.53
69359;HTU21D;56520;49.066;8.660;2023-04-24T11:41:37;13.51;62.64
69359;HTU21D;56520;49.066;8.660;2023-04-24T11:44:05;13.53;62.66
69359;HTU21D;56520;49.066;8.660;2023-04-24T11:46:31;13.39;62.57
69359;HTU21D;56520;49.066;8.660;2023-04-24T11:48:58;13.30;62.16
69359;HTU21D;56520;49.066;8.660;2023-04-24T11:51:24;13.29;62.59
69359;HTU21D;56520;49.066;8.660;2023-04-24T11:53:54;13.38;62.77
69359;HTU21D;56520;49.066;8.660;2023-04-24T11:56:23;13.56;61.41
69359;HTU21D;56520;49.066;8.660;2023-04-24T11:58:52;13.75;59.54
69359;HTU21D;56520;49.066;8.660;2023-04-24T12:01:18;13.61;59.80
69359;HTU21D;56520;49.066;8.660;2023-04-24T12:03:47;13.39;60.82
69359;HTU21D;56520;49.066;8.660;2023-04-24T12:06:13;13.35;61.37
69359;HTU21D;56520;49.066;8.660;2023-04-24T12:08:39;13.19;61.70
69359;HTU21D;56520;49.066;8.660;2023-04-24T12:11:05;13.23;61.78
69359;HTU21D;56520;49.066;8.660;2023-04-24T12:13:34;13.31;62.31
69359;HTU21D;56520;49.066;8.660;2023-04-24T12:16:04;13.40;62.41
69359;HTU21D;56520;49.066;8.660;2023-04-24T12:18:32;13.44;62.85
69359;HTU21D;56520;49.066;8.660;2023-04-24T12:21:17;13.85;62.16
69359;HTU21D;56520;49.066;8.660;2023-04-24T12:23:44;14.43;61.93
69359;HTU21D;56520;49.066;8.660;2023-04-24T12:26:10;15.09;59.22
69359;HTU21D;56520;49.066;8.660;2023-04-24T12:28:37;15.21;56.39
69359;HTU21D;56520;49.066;8.660;2023-04-24T12:31:02;15.02;57.14
69359;HTU21D;56520;49.066;8.660;2023-04-24T12:33:32;15.03;58.93
69359;HTU21D;56520;49.066;8.660;2023-04-24T12:35:58;14.78;58.19
69359;HTU21D;56520;49.066;8.660;2023-04-24T12:38:26;14.47;59.29
69359;HTU21D;56520;49.066;8.660;2023-04-24T12:41:12;13.95;60.33
69359;HTU21D;56520;49.066;8.660;2023-04-24T12:43:38;13.43;61.83
69359;HTU21D;56520;49.066;8.660;2023-04-24T12:46:04;13.14;63.27
69359;HTU21D;56520;49.066;8.660;2023-04-24T12:48:30;13.18;63.98
69359;HTU21D;56520;49.066;8.660;2023-04-24T12:50:59;13.70;62.19
69359;HTU21D;56520;49.066;8.660;2023-04-24T12:53:28;14.33;60.71
69359;HTU21D;56520;49.066;8.660;2023-04-24T12:55:55;14.44;59.31
69359;HTU21D;56520;49.066;8.660;2023-04-24T12:58:24;14.35;59.63
69359;HTU21D;56520;49.066;8.660;2023-04-24T13:00:49;14.35;60.12
69359;HTU21D;56520;49.066;8.660;2023-04-24T13:03:15;14.49;58.64
69359;HTU21D;56520;49.066;8.660;2023-04-24T13:05:42;14.58;57.78
69359;HTU21D;56520;49.066;8.660;2023-04-24T13:08:09;14.68;56.51
69359;HTU21D;56520;49.066;8.660;2023-04-24T13:10:39;14.74;55.00
69359;HTU21D;56520;49.066;8.660;2023-04-24T13:13:05;14.50;55.49
69359;HTU21D;56520;49.066;8.660;2023-04-24T13:15:30;14.32;57.68
69359;HTU21D;56520;49.066;8.660;2023-04-24T13:17:56;14.39;57.75
69359;HTU21D;56520;49.066;8.660;2023-04-24T13:20:21;14.66;58.27
69359;HTU21D;56520;49.066;8.660;2023-04-24T13:22:47;14.86;55.40
69359;HTU21D;56520;49.066;8.660;2023-04-24T13:25:12;14.85;54.42
69359;HTU21D;56520;49.066;8.660;2023-04-24T13:27:38;14.71;52.44
69359;HTU21D;56520;49.066;8.660;2023-04-24T13:30:05;14.53;53.35
69359;HTU21D;56520;49.066;8.660;2023-04-24T13:32:30;14.38;54.76
69359;HTU21D;56520;49.066;8.660;2023-04-24T13:34:57;14.37;54.78
69359;HTU21D;56520;49.066;8.660;2023-04-24T13:37:23;14.48;55.68
69359;HTU21D;56520;49.066;8.660;2023-04-24T13:39:48;14.70;52.94
69359;HTU21D;56520;49.066;8.660;2023-04-24T13:42:13;14.87;52.71
69359;HTU21D;56520;49.066;8.660;2023-04-24T13:44:40;15.21;51.32
69359;HTU21D;56520;49.066;8.660;2023-04-24T13:47:05;15.25;52.25
69359;HTU21D;56520;49.066;8.660;2023-04-24T13:49:31;15.23;52.11
69359;HTU21D;56520;49.066;8.660;2023-04-24T13:51:56;15.06;52.14
69359;HTU21D;56520;49.066;8.660;2023-04-24T13:54:21;15.01;52.27
69359;HTU21D;56520;49.066;8.660;2023-04-24T13:56:49;14.97;52.93
69359;HTU21D;56520;49.066;8.660;2023-04-24T13:59:14;14.91;54.45
69359;HTU21D;56520;49.066;8.660;2023-04-24T14:01:40;14.86;53.94
69359;HTU21D;56520;49.066;8.660;2023-04-24T14:04:05;14.73;54.64
69359;HTU21D;56520;49.066;8.660;2023-04-24T14:06:31;14.64;54.57
69359;HTU21D;56520;49.066;8.660;2023-04-24T14:08:56;14.51;53.75
69359;HTU21D;56520;49.066;8.660;2023-04-24T14:11:22;14.47;53.97
69359;HTU21D;56520;49.066;8.660;2023-04-24T14:13:47;14.54;53.87
69359;HTU21D;56520;49.066;8.660;2023-04-24T14:16:13;14.64;54.98
69359;HTU21D;56520;49.066;8.660;2023-04-24T14:18:39;14.71;54.56
69359;HTU21D;56520;49.066;8.660;2023-04-24T14:21:05;14.84;55.20
69359;HTU21D;56520;49.066;8.660;2023-04-24T14:23:31;15.10;54.29
69359;HTU21D;56520;49.066;8.660;2023-04-24T14:25:57;15.15;53.65
69359;HTU21D;56520;49.066;8.660;2023-04-24T14:28:22;15.36;54.82
69359;HTU21D;56520;49.066;8.660;2023-04-24T14:30:48;15.88;52.82
69359;HTU21D;56520;49.066;8.660;2023-04-24T14:33:14;15.97;51.04
69359;HTU21D;56520;49.066;8.660;2023-04-24T14:35:40;15.53;52.87
69359;HTU21D;56520;49.066;8.660;2023-04-24T14:38:07;15.06;54.94
69359;HTU21D;56520;49.066;8.660;2023-04-24T14:40:33;14.81;55.16
69359;HTU21D;56520;49.066;8.660;2023-04-24T14:42:58;15.01;54.16
69359;HTU21D;56520;49.066;8.660;2023-04-24T14:45:25;15.08;55.14
69359;HTU21D;56520;49.066;8.660;2023-04-24T14:47:50;15.03;53.52
69359;HTU21D;56520;49.066;8.660;2023-04-24T14:50:16;14.73;55.93
69359;HTU21D;56520;49.066;8.660;2023-04-24T14:52:42;14.58;56.90
69359;HTU21D;56520;49.066;8.660;2023-04-24T14:55:07;14.68;56.69
69359;HTU21D;56520;49.066;8.660;2023-04-24T14:57:34;14.75;56.01
69359;HTU21D;56520;49.066;8.660;2023-04-24T14:59:59;14.72;56.36
69359;HTU21D;56520;49.066;8.660;2023-04-24T15:02:25;14.89;56.91
69359;HTU21D;56520;49.066;8.660;2023-04-24T15:04:51;15.25;55.35
69359;HTU21D;56520;49.066;8.660;2023-04-24T15:07:16;15.24;55.71
69359;HTU21D;56520;49.066;8.660;2023-04-24T15:09:41;15.33;55.04
69359;HTU21D;56520;49.066;8.660;2023-04-24T15:12:08;15.24;56.90
69359;HTU21D;56520;49.066;8.660;2023-04-24T15:14:33;15.28;56.22
69359;HTU21D;56520;49.066;8.660;2023-04-24T15:16:59;15.00;56.80
69359;HTU21D;56520;49.066;8.660;2023-04-24T15:19:24;14.99;56.52
69359;HTU21D;56520;49.066;8.660;2023-04-24T15:21:50;15.27;54.11
69359;HTU21D;56520;49.066;8.660;2023-04-24T15:24:15;15.11;55.43
69359;HTU21D;56520;49.066;8.660;2023-04-24T15:26:40;14.78;55.70